Ana Sayfa
METAR-TAF:

METAR-TAF

Havaalanları :

Kasuminome, Japonya

Enlem: 38-14N, Boylam: 140-55E, yükseklik: 7 m

Güncel hava durumu gözlemi

Rapor saat 06:40 UTC de 1 saat ve 16 dakika önce yapıldı.
Rüzgar güneydoğudan 6 kt
Sıcaklık 27°C
Nem 74%
Basınç 1005 hPa
Görüş mesafesi 10 km veya daha fazla
2000 ft yükseklikte az bulutlu
5000 ft yükseklikte parçalı bulutlu
10000 ft yükseklikte parçalı çok bulutlu

METAR: RJSU 250640Z 14006KT 9999 FEW020 SCT050 BKN100 27/22 Q1005 RMK 1CU020 3SC050 5AC100 A2968

Saat: 16:56 (07:56 UTC)


TAF: eksik

4.000'den fazla havaalanı için hava durumu gözlemleri ve tahminleri (METAR ve TAF raporları).

Kullanılabilir istasyonlar harita üzerinde sarı ve kırmızı noktalarla gösterilir.

İstasyonun adını görmek için fareyi noktanın üzerinde gezdirin.

Sonrasında hava gözlem ve tahminlerini görmek için tıklayın.

Haritayı değiştirmek için: yaklaştırmak için siyah artı işaretli yeşil düğmeye ve uzaklaştırmak için de eksi işaretli düğmeye hızla tıklayın; bitişik haritalar için yeşil okları kullanın.


METAR-TAF: